EPGDEYPA

Guest
Details From EPGD - LECH WALESA
To EYPA - PALANGA INTL
Flight Number -
Tags generated
Created
Modified
Stats Distance 132 nm / 245 km
Max Altitude 17,500 ft / 5,334 m
Waypoints 3
Social Downloads 0
Likes 0
Share VATSIM

Download

Looking for another format? Having issues loading an existing format? Contact us
Advertisement - Login to hide

Notes

Basic altitude profile: - Ascent Rate: 700ft/min - Ascent Speed: 130kts - Cruise Altitude: 7000ft - Cruise Speed: 160kts - Descent Rate: 700ft/min - Descent Speed: 160kts Options: - Use NATs: yes - Use PACOTS: yes - Use low airways: yes - Use high airways: no

Route

EPGD TARUN EYPA

ID Type Via Altitude Latitude Longitude Leg Dist Tot Dist Heading (true) Name
O EPGD APT - 0 ft / 0 m 54.37617˚ 18.47188˚ - 0 nm - LECH WALESA
TARUN FIX - 17,500 ft / 5,334 m 54.90000˚ 19.60000˚ 50 nm 50 nm 51° / 52° -
O EYPA APT - 0 ft / 0 m 55.97312˚ 21.09381˚ 82 nm 132 nm 38° / 39° PALANGA INTL

Altitude Profile

Advertisement - Login to hide

EPGD

Details ICAO EPGD (GDN)
Name LECH WALESA
Region Poland
Timezone Europe/Warsaw (UTC+1.0)
Stats Elevation 489 ft / 149 m (AMSL)
Location 54.376167° 18.471884°
Runways 1
Magnetic Variation 5.451° E

METAR

EPGD 142100Z 21012KT 9999 FEW019 BKN030 02/M01 Q0989 R11/290095

Decode

TAF

TAF TAF EPGD 141730Z 1418/1518 20010KT 9999 BKN020 TEMPO 1418/1507 3000 -RA RASN BKN006 BKN015 BECMG 1514/1518 26005KT BKN010

Decode

Departure Runways

ID Width Length Bearing (true) Bearing (mag) Surface Threshold Offset Overrun Length
11 148 ft / 45 m 9,158 ft / 2,791 m 112.96° 107.51° Asphalt 0 ft / 0 m 0 ft / 0 m
29 148 ft / 45 m 9,158 ft / 2,791 m 293.00° 287.55° Asphalt 0 ft / 0 m 0 ft / 0 m

EYPA

Details ICAO EYPA (PLQ)
Name PALANGA INTL
Region Lithuania
Timezone Europe/Vilnius (UTC+2.0)
Stats Elevation 33 ft / 10 m (AMSL)
Location 55.973115° 21.093811°
Runways 1
Magnetic Variation 6.525° E

METAR

EYPA 142050Z 17011KT 8000 BKN008 02/02 Q0989 R19/2///95

Decode

TAF

TAF EYPA 141117Z 1412/1512 16020G32KT 3000 RASN BR SCT005 OVC010 TEMPO 1412/1415 0800 +SHRASN BKN003 BKN013CB TEMPO 1415/1421 1500 SNRA OVC005 BECMG 1421/1422 22010G22KT OVC005

Decode

Destination Runways

ID Width Length Bearing (true) Bearing (mag) Surface Threshold Offset Overrun Length
01 131 ft / 40 m 6,473 ft / 1,973 m 12.70° 6.17° Asphalt 0 ft / 0 m 0 ft / 0 m
19 131 ft / 40 m 6,473 ft / 1,973 m 192.71° 186.18° Asphalt 0 ft / 0 m 0 ft / 0 m

Approach Navaids

Runway Type Ident Frequency Range Bearing (true) Bearing (mag) Slope Elevation
19 Localiser IAN 110.10 MHz 18 nm / 33 km 192.71° 186.18° - 33 ft / 10 m (AMSL)
19 Glidescope IAN 110.10 MHz 10 nm / 19 km 192.71° 186.18° 3.00° 33 ft / 10 m (AMSL)
19 DME IAN 110.10 MHz 18 nm / 33 km - - - 39 ft / 12 m (AMSL)

Popular Alternatives